Perkins, Missouri
Current Conditions -  °F | °C
As of 7:53 AM on Wednesday 28 Jan 2015 (Local Time) from KCGI Reporting Station
Haze Haze  
Wind Chill: 23°   Ceiling: Unl
Heat Index: 29°   Visibility: 6mi
Dew Point: 27°   Wind: 6mph
Humidity: 92%   Direction: 110°ESE
Pressure: 30.3"   Gusts: NA
Location:  37.09°N, 89.78°W
Report Text: KCGI 281353Z 11005KT 6SM BR CLR M02/M03 A3030 RMK AO2 SLP264 T10171028
Loading
Personal Weather Stations






























Interactive Weather Map New forecast layout! Learn more

10-Day Weather Forecast

Advertisements
Track Severe Weather on mobile